PAS646 WALL-WAHI
Flight info
| Callsign | PAS646 |
|---|---|
| Flight time | N/A |
| Altitude | 35000 |
| Route | AJAMA T14 LAVOV T26 ANY W17N SO |
| Aircraft | A320/M-SDE3FGHIRWY/LB1 |
Departure
| Time | 2026-04-28 02:55 |
|---|---|
| Airport | Sultan Aji Muhammad Sulaiman Sepinggan International Airport (WALL) |
Arrival
| Time | N/A |
|---|---|
| Airport | Yogyakarta International Airport (WAHI) |
| Time | Latitude | Longitude | Altitude | Speed | Heading |
|---|---|---|---|---|---|
| 2026-04-28 02:37 | -1.26265 | 116.89962 | 21 ft | 0 kts | 338° |
| 2026-04-28 02:44 | -1.26287 | 116.89971 | 21 ft | 4 kts | 338° |
| 2026-04-28 02:44 | -1.26311 | 116.89982 | 21 ft | 4 kts | 322° |
| 2026-04-28 02:45 | -1.26326 | 116.90001 | 21 ft | 4 kts | 274° |
| 2026-04-28 02:45 | -1.26324 | 116.90018 | 21 ft | 1 kts | 248° |
| 2026-04-28 02:45 | -1.26323 | 116.90020 | 23 ft | 0 kts | 248° |
| 2026-04-28 02:47 | -1.26330 | 116.90002 | 21 ft | 6 kts | 248° |
| 2026-04-28 02:48 | -1.26358 | 116.89937 | 21 ft | 11 kts | 247° |
| 2026-04-28 02:48 | -1.26385 | 116.89870 | 21 ft | 12 kts | 247° |
| 2026-04-28 02:48 | -1.26417 | 116.89796 | 21 ft | 11 kts | 246° |
| 2026-04-28 02:48 | -1.26471 | 116.89775 | 21 ft | 8 kts | 161° |
| 2026-04-28 02:49 | -1.26519 | 116.89761 | 22 ft | 12 kts | 233° |
| 2026-04-28 02:49 | -1.26567 | 116.89655 | 23 ft | 19 kts | 248° |
| 2026-04-28 02:49 | -1.26620 | 116.89527 | 23 ft | 20 kts | 247° |
| 2026-04-28 02:49 | -1.26674 | 116.89397 | 21 ft | 21 kts | 247° |
| 2026-04-28 02:50 | -1.26733 | 116.89258 | 21 ft | 22 kts | 247° |
| 2026-04-28 02:50 | -1.26795 | 116.89112 | 21 ft | 23 kts | 246° |
| 2026-04-28 02:50 | -1.26860 | 116.88960 | 21 ft | 24 kts | 246° |
| 2026-04-28 02:50 | -1.26927 | 116.88800 | 22 ft | 25 kts | 247° |
| 2026-04-28 02:51 | -1.26990 | 116.88651 | 21 ft | 21 kts | 248° |
| 2026-04-28 02:51 | -1.27043 | 116.88523 | 22 ft | 16 kts | 247° |
| 2026-04-28 02:51 | -1.27085 | 116.88428 | 21 ft | 14 kts | 244° |
| 2026-04-28 02:51 | -1.27134 | 116.88371 | 22 ft | 9 kts | 206° |
| 2026-04-28 02:52 | -1.27173 | 116.88365 | 23 ft | 3 kts | 172° |
| 2026-04-28 02:52 | -1.27176 | 116.88366 | 21 ft | 0 kts | 167° |
| 2026-04-28 02:53 | -1.27187 | 116.88369 | 21 ft | 5 kts | 163° |
| 2026-04-28 02:53 | -1.27226 | 116.88398 | 23 ft | 8 kts | 128° |
| 2026-04-28 02:54 | -1.27262 | 116.88432 | 21 ft | 6 kts | 119° |
| 2026-04-28 02:54 | -1.27252 | 116.88464 | 22 ft | 7 kts | 65° |
| 2026-04-28 02:54 | -1.27152 | 116.88690 | 19 ft | 73 kts | 69° |
| 2026-04-28 02:54 | -1.26874 | 116.89361 | 24 ft | 133 kts | 67° |
| 2026-04-28 02:55 | -1.26448 | 116.90353 | 163 ft | 167 kts | 65° |
| 2026-04-28 02:55 | -1.25972 | 116.91431 | 851 ft | 167 kts | 66° |
| 2026-04-28 02:55 | -1.25524 | 116.92489 | 1607 ft | 165 kts | 68° |
| 2026-04-28 02:55 | -1.25072 | 116.93567 | 2114 ft | 176 kts | 66° |
| 2026-04-28 02:56 | -1.24566 | 116.94763 | 2364 ft | 197 kts | 66° |
| 2026-04-28 02:56 | -1.24002 | 116.96096 | 2610 ft | 220 kts | 68° |
| 2026-04-28 02:56 | -1.23756 | 116.97597 | 3251 ft | 223 kts | 102° |
| 2026-04-28 02:56 | -1.24517 | 116.98957 | 3739 ft | 238 kts | 139° |
| 2026-04-28 02:57 | -1.25957 | 116.99838 | 4308 ft | 249 kts | 155° |
| 2026-04-28 02:57 | -1.27584 | 117.00476 | 5030 ft | 253 kts | 160° |
| 2026-04-28 02:57 | -1.29264 | 117.01055 | 5775 ft | 257 kts | 160° |
| 2026-04-28 02:57 | -1.30959 | 117.01645 | 6509 ft | 260 kts | 159° |
| 2026-04-28 02:58 | -1.32663 | 117.02273 | 7231 ft | 263 kts | 158° |
| 2026-04-28 02:58 | -1.34379 | 117.02943 | 7950 ft | 266 kts | 158° |
| 2026-04-28 02:58 | -1.36106 | 117.03645 | 8656 ft | 269 kts | 157° |
| 2026-04-28 02:58 | -1.37842 | 117.04366 | 9339 ft | 272 kts | 157° |
| 2026-04-28 02:59 | -1.39600 | 117.05105 | 9998 ft | 275 kts | 156° |
| 2026-04-28 02:59 | -1.41377 | 117.05854 | 10636 ft | 279 kts | 156° |
| 2026-04-28 02:59 | -1.43213 | 117.06499 | 11270 ft | 282 kts | 172° |
| 2026-04-28 02:59 | -1.45160 | 117.06340 | 11872 ft | 286 kts | 201° |
| 2026-04-28 03:00 | -1.46830 | 117.05255 | 12142 ft | 302 kts | 230° |
| 2026-04-28 03:00 | -1.47918 | 117.03389 | 12286 ft | 323 kts | 246° |
| 2026-04-28 03:00 | -1.48841 | 117.01261 | 12422 ft | 344 kts | 248° |
| 2026-04-28 03:00 | -1.49778 | 116.98951 | 12592 ft | 362 kts | 249° |
| 2026-04-28 03:01 | -1.50726 | 116.96586 | 13026 ft | 370 kts | 248° |
| 2026-04-28 03:01 | -1.51698 | 116.94189 | 13559 ft | 374 kts | 248° |
| 2026-04-28 03:01 | -1.52694 | 116.91774 | 14081 ft | 379 kts | 248° |
| 2026-04-28 03:01 | -1.53437 | 116.89271 | 14593 ft | 382 kts | 261° |
| 2026-04-28 03:02 | -1.53617 | 116.86584 | 15111 ft | 385 kts | 274° |
| 2026-04-28 03:02 | -1.53186 | 116.83934 | 15602 ft | 388 kts | 285° |
| 2026-04-28 03:02 | -1.52513 | 116.81344 | 16083 ft | 392 kts | 285° |
| 2026-04-28 03:02 | -1.51826 | 116.78695 | 16560 ft | 396 kts | 285° |
| 2026-04-28 03:03 | -1.51129 | 116.75987 | 17027 ft | 400 kts | 285° |
| 2026-04-28 03:03 | -1.50445 | 116.73316 | 17467 ft | 403 kts | 285° |
| 2026-04-28 03:03 | -1.49738 | 116.70558 | 17937 ft | 406 kts | 285° |
| 2026-04-28 03:03 | -1.49028 | 116.67811 | 18373 ft | 410 kts | 286° |
| 2026-04-28 03:04 | -1.48299 | 116.65049 | 18802 ft | 413 kts | 286° |
| 2026-04-28 03:04 | -1.47564 | 116.62297 | 19214 ft | 416 kts | 286° |
| 2026-04-28 03:04 | -1.46803 | 116.59458 | 19629 ft | 419 kts | 286° |
| 2026-04-28 03:04 | -1.46058 | 116.56668 | 20019 ft | 422 kts | 285° |
| 2026-04-28 03:05 | -1.45555 | 116.53727 | 20403 ft | 427 kts | 275° |
| 2026-04-28 03:05 | -1.45613 | 116.50751 | 20768 ft | 430 kts | 263° |
| 2026-04-28 03:05 | -1.46225 | 116.47819 | 21137 ft | 433 kts | 252° |
| 2026-04-28 03:05 | -1.47259 | 116.45024 | 21487 ft | 436 kts | 249° |
| 2026-04-28 03:06 | -1.48352 | 116.42192 | 21839 ft | 439 kts | 249° |
| 2026-04-28 03:06 | -1.49451 | 116.39341 | 22194 ft | 442 kts | 249° |
| 2026-04-28 03:06 | -1.50557 | 116.36469 | 22563 ft | 444 kts | 249° |
| 2026-04-28 03:06 | -1.51665 | 116.33580 | 22881 ft | 446 kts | 249° |
| 2026-04-28 03:07 | -1.52781 | 116.30674 | 23221 ft | 449 kts | 248° |
| 2026-04-28 03:07 | -1.53901 | 116.27756 | 23551 ft | 451 kts | 248° |
| 2026-04-28 03:07 | -1.55028 | 116.24825 | 23852 ft | 454 kts | 248° |
| 2026-04-28 03:07 | -1.56164 | 116.21873 | 24161 ft | 456 kts | 248° |
| 2026-04-28 03:08 | -1.57307 | 116.18904 | 24469 ft | 458 kts | 248° |
| 2026-04-28 03:08 | -1.58454 | 116.15932 | 24782 ft | 460 kts | 248° |
| 2026-04-28 03:08 | -1.59610 | 116.12944 | 25077 ft | 462 kts | 248° |
| 2026-04-28 03:08 | -1.60769 | 116.09946 | 25370 ft | 464 kts | 248° |
| 2026-04-28 03:09 | -1.61934 | 116.06926 | 25666 ft | 466 kts | 248° |
| 2026-04-28 03:09 | -1.63098 | 116.03907 | 25958 ft | 467 kts | 248° |
| 2026-04-28 03:09 | -1.63891 | 116.01855 | 26152 ft | 468 kts | 248° |
| 2026-04-28 03:09 | -1.65068 | 115.98812 | 26409 ft | 470 kts | 248° |
| 2026-04-28 03:10 | -1.66246 | 115.95764 | 26676 ft | 471 kts | 248° |
| 2026-04-28 03:10 | -1.67427 | 115.92702 | 26928 ft | 473 kts | 248° |
| 2026-04-28 03:10 | -1.68596 | 115.89665 | 27190 ft | 475 kts | 248° |
| 2026-04-28 03:10 | -1.69783 | 115.86577 | 27439 ft | 477 kts | 248° |
| 2026-04-28 03:11 | -1.70991 | 115.83438 | 27671 ft | 479 kts | 247° |
| 2026-04-28 03:11 | -1.72188 | 115.80332 | 27936 ft | 480 kts | 248° |
| 2026-04-28 03:11 | -1.73389 | 115.77216 | 28179 ft | 481 kts | 248° |
| 2026-04-28 03:11 | -1.74576 | 115.74137 | 28397 ft | 482 kts | 248° |
| 2026-04-28 03:12 | -1.75783 | 115.71002 | 28633 ft | 483 kts | 247° |
| 2026-04-28 03:12 | -1.76993 | 115.67862 | 28833 ft | 485 kts | 248° |
| 2026-04-28 03:12 | -1.78207 | 115.64712 | 29068 ft | 486 kts | 247° |
| 2026-04-28 03:12 | -1.79428 | 115.61552 | 29279 ft | 488 kts | 247° |
| 2026-04-28 03:13 | -1.80649 | 115.58385 | 29508 ft | 489 kts | 247° |
| 2026-04-28 03:13 | -1.81873 | 115.55208 | 29714 ft | 490 kts | 248° |
| 2026-04-28 03:13 | -1.83099 | 115.52023 | 29919 ft | 491 kts | 247° |
| 2026-04-28 03:13 | -1.84328 | 115.48833 | 30119 ft | 492 kts | 248° |
| 2026-04-28 03:14 | -1.85561 | 115.45642 | 30345 ft | 492 kts | 248° |
| 2026-04-28 03:14 | -1.86910 | 115.42506 | 30665 ft | 490 kts | 240° |
| 2026-04-28 03:14 | -1.88670 | 115.39619 | 31095 ft | 485 kts | 232° |
| 2026-04-28 03:14 | -1.90732 | 115.36963 | 31311 ft | 484 kts | 230° |
| 2026-04-28 03:15 | -1.92835 | 115.34327 | 31552 ft | 484 kts | 230° |
| 2026-04-28 03:15 | -1.94933 | 115.31699 | 31804 ft | 484 kts | 230° |
| 2026-04-28 03:15 | -1.97031 | 115.29076 | 32055 ft | 483 kts | 230° |
| 2026-04-28 03:15 | -1.99129 | 115.26453 | 32325 ft | 482 kts | 230° |
| 2026-04-28 03:16 | -2.01229 | 115.23832 | 32586 ft | 482 kts | 230° |
| 2026-04-28 03:16 | -2.03318 | 115.21226 | 32850 ft | 481 kts | 230° |
| 2026-04-28 03:16 | -2.05406 | 115.18614 | 33104 ft | 480 kts | 230° |
| 2026-04-28 03:16 | -2.07489 | 115.16004 | 33354 ft | 480 kts | 230° |
| 2026-04-28 03:17 | -2.09577 | 115.13391 | 33613 ft | 480 kts | 230° |
| 2026-04-28 03:17 | -2.13734 | 115.08194 | 34144 ft | 478 kts | 230° |
| 2026-04-28 03:17 | -2.15812 | 115.05594 | 34400 ft | 477 kts | 230° |
| 2026-04-28 03:18 | -2.17880 | 115.03005 | 34638 ft | 477 kts | 230° |
| 2026-04-28 03:18 | -2.19950 | 115.00416 | 34837 ft | 477 kts | 230° |
| 2026-04-28 03:18 | -2.24084 | 114.95247 | 34897 ft | 475 kts | 230° |
| 2026-04-28 03:19 | -2.28203 | 114.90087 | 34896 ft | 475 kts | 230° |
| 2026-04-28 03:19 | -2.32328 | 114.84932 | 34896 ft | 474 kts | 230° |
| 2026-04-28 03:20 | -2.36448 | 114.79778 | 34896 ft | 474 kts | 230° |
| 2026-04-28 03:20 | -2.40566 | 114.74616 | 34899 ft | 475 kts | 230° |
| 2026-04-28 03:21 | -2.44684 | 114.69449 | 34898 ft | 476 kts | 230° |
| 2026-04-28 03:21 | -2.48814 | 114.64280 | 34905 ft | 475 kts | 230° |
| 2026-04-28 03:22 | -2.52941 | 114.59118 | 34896 ft | 474 kts | 230° |
| 2026-04-28 03:22 | -2.57059 | 114.53960 | 34894 ft | 474 kts | 230° |
| 2026-04-28 03:23 | -2.61168 | 114.48807 | 34885 ft | 474 kts | 230° |
| 2026-04-28 03:23 | -2.65282 | 114.43650 | 34885 ft | 474 kts | 230° |
| 2026-04-28 03:24 | -2.69399 | 114.38499 | 34887 ft | 474 kts | 230° |
| 2026-04-28 03:24 | -2.73514 | 114.33339 | 34887 ft | 474 kts | 230° |
| 2026-04-28 03:25 | -2.77627 | 114.28173 | 34886 ft | 475 kts | 230° |
| 2026-04-28 03:25 | -2.81752 | 114.23011 | 34889 ft | 475 kts | 230° |
| 2026-04-28 03:26 | -2.85869 | 114.17859 | 34888 ft | 475 kts | 230° |
| 2026-04-28 03:26 | -2.89995 | 114.12692 | 34891 ft | 475 kts | 230° |
| 2026-04-28 03:27 | -2.94115 | 114.07522 | 34895 ft | 475 kts | 230° |
| 2026-04-28 03:27 | -2.98238 | 114.02348 | 34896 ft | 475 kts | 230° |
| 2026-04-28 03:28 | -3.02368 | 113.97178 | 34899 ft | 476 kts | 230° |
| 2026-04-28 03:28 | -3.06499 | 113.92007 | 34896 ft | 476 kts | 230° |
| 2026-04-28 03:29 | -3.10624 | 113.86821 | 34895 ft | 476 kts | 230° |
| 2026-04-28 03:29 | -3.14745 | 113.81636 | 34894 ft | 476 kts | 230° |
| 2026-04-28 03:30 | -3.18872 | 113.76448 | 34897 ft | 476 kts | 230° |
| 2026-04-28 03:30 | -3.23006 | 113.71269 | 34906 ft | 476 kts | 230° |
| 2026-04-28 03:31 | -3.27143 | 113.66086 | 34906 ft | 476 kts | 230° |
| 2026-04-28 03:31 | -3.31265 | 113.60914 | 34905 ft | 476 kts | 230° |
| 2026-04-28 03:32 | -3.35392 | 113.55731 | 34903 ft | 476 kts | 230° |
| 2026-04-28 03:32 | -3.39518 | 113.50547 | 34903 ft | 476 kts | 230° |
| 2026-04-28 03:33 | -3.43645 | 113.45363 | 34899 ft | 476 kts | 230° |
| 2026-04-28 03:33 | -3.47771 | 113.40192 | 34892 ft | 475 kts | 230° |
| 2026-04-28 03:34 | -3.51889 | 113.35011 | 34892 ft | 476 kts | 230° |
| 2026-04-28 03:34 | -3.56002 | 113.29829 | 34890 ft | 476 kts | 230° |
| 2026-04-28 03:35 | -3.60136 | 113.24638 | 34891 ft | 476 kts | 230° |
| 2026-04-28 03:35 | -3.64263 | 113.19458 | 34889 ft | 476 kts | 230° |
| 2026-04-28 03:36 | -3.68388 | 113.14270 | 34890 ft | 476 kts | 230° |
| 2026-04-28 03:36 | -3.72511 | 113.09078 | 34892 ft | 477 kts | 230° |
| 2026-04-28 03:37 | -3.76643 | 113.03890 | 34891 ft | 476 kts | 230° |
| 2026-04-28 03:37 | -3.80775 | 112.98700 | 34898 ft | 477 kts | 230° |
| 2026-04-28 03:38 | -3.84908 | 112.93508 | 34906 ft | 477 kts | 230° |
| 2026-04-28 03:38 | -3.89040 | 112.88309 | 34915 ft | 477 kts | 230° |
| 2026-04-28 03:39 | -3.93165 | 112.83109 | 34909 ft | 476 kts | 230° |
| 2026-04-28 03:39 | -3.97289 | 112.77921 | 34904 ft | 476 kts | 230° |
| 2026-04-28 03:40 | -4.01444 | 112.72692 | 34896 ft | 476 kts | 230° |
| 2026-04-28 03:40 | -4.05571 | 112.67495 | 34888 ft | 477 kts | 230° |
| 2026-04-28 03:41 | -4.09697 | 112.62280 | 34888 ft | 478 kts | 230° |
| 2026-04-28 03:41 | -4.13830 | 112.57066 | 34887 ft | 478 kts | 230° |
| 2026-04-28 03:42 | -4.18133 | 112.51996 | 34893 ft | 476 kts | 221° |
| 2026-04-28 03:42 | -4.23305 | 112.47887 | 34894 ft | 475 kts | 216° |
| 2026-04-28 03:43 | -4.28558 | 112.43876 | 34892 ft | 475 kts | 216° |
| 2026-04-28 03:43 | -4.33806 | 112.39847 | 34895 ft | 475 kts | 216° |
| 2026-04-28 03:44 | -4.39045 | 112.35820 | 34893 ft | 475 kts | 216° |
| 2026-04-28 03:44 | -4.44296 | 112.31803 | 34892 ft | 475 kts | 216° |
| 2026-04-28 03:45 | -4.49518 | 112.27809 | 34897 ft | 475 kts | 216° |
| 2026-04-28 03:45 | -4.54782 | 112.23781 | 34900 ft | 476 kts | 216° |
| 2026-04-28 03:46 | -4.60070 | 112.19721 | 34895 ft | 475 kts | 216° |
| 2026-04-28 03:46 | -4.65271 | 112.15718 | 34889 ft | 475 kts | 216° |
| 2026-04-28 03:47 | -4.70554 | 112.11665 | 34887 ft | 475 kts | 216° |
| 2026-04-28 03:47 | -4.75811 | 112.07638 | 34894 ft | 476 kts | 216° |
| 2026-04-28 03:48 | -4.80182 | 112.04279 | 34893 ft | 476 kts | 216° |
| 2026-04-28 03:48 | -4.85439 | 112.00244 | 34893 ft | 476 kts | 216° |
| 2026-04-28 03:49 | -4.90692 | 111.96211 | 34895 ft | 476 kts | 216° |
| 2026-04-28 03:49 | -4.95964 | 111.92165 | 34910 ft | 477 kts | 216° |
| 2026-04-28 03:50 | -5.01231 | 111.88128 | 34909 ft | 476 kts | 216° |
| 2026-04-28 03:50 | -5.06481 | 111.84095 | 34904 ft | 475 kts | 216° |
| 2026-04-28 03:51 | -5.11728 | 111.80053 | 34900 ft | 475 kts | 217° |
| 2026-04-28 03:51 | -5.16978 | 111.76007 | 34903 ft | 476 kts | 216° |
| 2026-04-28 03:52 | -5.22227 | 111.71976 | 34900 ft | 476 kts | 217° |
| 2026-04-28 03:52 | -5.27492 | 111.67940 | 34897 ft | 476 kts | 216° |
| 2026-04-28 03:53 | -5.32746 | 111.63906 | 34895 ft | 475 kts | 217° |
| 2026-04-28 03:53 | -5.37993 | 111.59861 | 34892 ft | 476 kts | 217° |
| 2026-04-28 03:54 | -5.43243 | 111.55814 | 34893 ft | 476 kts | 217° |
| 2026-04-28 03:54 | -5.48507 | 111.51769 | 34899 ft | 476 kts | 217° |
| 2026-04-28 03:55 | -5.53765 | 111.47732 | 34901 ft | 475 kts | 217° |
| 2026-04-28 03:55 | -5.59017 | 111.43698 | 34899 ft | 475 kts | 217° |
| 2026-04-28 03:56 | -5.64252 | 111.39652 | 34896 ft | 475 kts | 217° |
| 2026-04-28 03:56 | -5.69498 | 111.35603 | 34894 ft | 475 kts | 217° |
| 2026-04-28 03:57 | -5.74744 | 111.31567 | 34899 ft | 476 kts | 217° |
| 2026-04-28 03:57 | -5.79989 | 111.27527 | 34897 ft | 475 kts | 217° |
| 2026-04-28 03:58 | -5.85237 | 111.23477 | 34898 ft | 476 kts | 217° |
| 2026-04-28 03:58 | -5.90492 | 111.19436 | 34898 ft | 476 kts | 217° |
| 2026-04-28 03:59 | -5.95772 | 111.15434 | 34901 ft | 476 kts | 216° |
| 2026-04-28 03:59 | -6.01069 | 111.11428 | 34889 ft | 476 kts | 216° |
| 2026-04-28 04:00 | -6.06334 | 111.07431 | 34887 ft | 474 kts | 217° |
| 2026-04-28 04:00 | -6.11596 | 111.03432 | 34888 ft | 475 kts | 217° |
| 2026-04-28 04:01 | -6.16869 | 110.99425 | 34891 ft | 475 kts | 217° |
| 2026-04-28 04:01 | -6.22132 | 110.95427 | 34892 ft | 475 kts | 217° |
| 2026-04-28 04:02 | -6.27393 | 110.91419 | 34889 ft | 474 kts | 217° |
| 2026-04-28 04:02 | -6.32657 | 110.87411 | 34891 ft | 475 kts | 217° |
| 2026-04-28 04:03 | -6.37926 | 110.83403 | 34891 ft | 475 kts | 217° |
| 2026-04-28 04:03 | -6.43204 | 110.79389 | 34896 ft | 475 kts | 217° |
| 2026-04-28 04:04 | -6.48465 | 110.75376 | 34894 ft | 475 kts | 217° |
| 2026-04-28 04:04 | -6.53729 | 110.71356 | 34894 ft | 475 kts | 217° |
| 2026-04-28 04:05 | -6.59003 | 110.67343 | 34900 ft | 476 kts | 217° |
| 2026-04-28 04:05 | -6.64278 | 110.63335 | 34898 ft | 475 kts | 217° |
| 2026-04-28 04:06 | -6.69550 | 110.59321 | 34898 ft | 475 kts | 217° |
| 2026-04-28 04:06 | -6.74807 | 110.55305 | 34895 ft | 475 kts | 217° |
| 2026-04-28 04:07 | -6.80067 | 110.51290 | 34889 ft | 474 kts | 217° |
| 2026-04-28 04:07 | -6.85326 | 110.47280 | 34890 ft | 474 kts | 217° |